Stockton, California
Current Conditions -  °F | °C
As of 10:11 PM on Friday 19 Dec 2014 (Local Time) from KSCK Reporting Station
Overcast Overcast  
Wind Chill: 54°   Ceiling: 3600
Heat Index: 54°   Visibility: 8mi
Dew Point: 52°   Wind: 7mph
Humidity: 94%   Direction: 130°SE
Pressure: 30.16"   Gusts: NA
Location:  37.95°N, 121.29°W
Report Text: KSCK 200611Z AUTO 13006KT 8SM SCT029 OVC036 12/11 A3016 RMK AO2
Loading
Personal Weather Stations






























Interactive Weather Map New forecast layout! Learn more

10-Day Weather Forecast

Advertisements
Track Severe Weather on mobile